Time;durP1;ratioP1;P1;durP2;ratioP2;P2;SDS_P1;SDS_P2;PMS_P1;PMS_P2;Temp;Humidity;BMP_temperature;BMP_pressure;BME280_temperature;BME280_humidity;BME280_pressure;Samples;Min_cycle;Max_cycle;Signal;HPM_P1;HPM_P2
2023/09/26 00:01:44;;;;;;;3.27;3.00;;;;;;;;;;5039470;28;20202;-89
2023/09/26 00:04:12;;;;;;;4.07;2.73;;;;;;;;;;5039319;28;20237;-88
2023/09/26 00:06:40;;;;;;;3.30;3.00;;;;;;;;;;5039584;28;20226;-89
2023/09/26 00:09:08;;;;;;;2.97;2.77;;;;;;;;;;5039261;28;20234;-89
2023/09/26 00:11:35;;;;;;;2.93;2.60;;;;;;;;;;5039843;28;20280;-89
2023/09/26 00:14:04;;;;;;;3.33;3.10;;;;;;;;;;5039157;28;20207;-89
2023/09/26 00:16:32;;;;;;;3.00;2.70;;;;;;;;;;5039704;28;20321;-88
2023/09/26 00:18:59;;;;;;;6.33;2.70;;;;;;;;;;5038766;28;20206;-88
2023/09/26 00:21:29;;;;;;;3.10;2.90;;;;;;;;;;5039473;28;20225;-89
2023/09/26 00:23:56;;;;;;;2.80;2.60;;;;;;;;;;5038860;28;20210;-88
2023/09/26 00:26:23;;;;;;;3.77;3.40;;;;;;;;;;5039125;28;20210;-88
2023/09/26 00:28:50;;;;;;;3.70;3.40;;;;;;;;;;5038765;28;20201;-88
2023/09/26 00:31:18;;;;;;;3.30;3.00;;;;;;;;;;5039657;28;20229;-88
2023/09/26 00:33:45;;;;;;;4.07;3.30;;;;;;;;;;5039264;28;20225;-88
2023/09/26 00:36:12;;;;;;;3.30;2.90;;;;;;;;;;5040592;28;20660;-89
2023/09/26 00:38:41;;;;;;;3.33;3.03;;;;;;;;;;5039424;28;20225;-88
2023/09/26 00:41:08;;;;;;;3.17;2.90;;;;;;;;;;5038894;28;20230;-88
2023/09/26 00:43:36;;;;;;;3.03;2.83;;;;;;;;;;5039369;28;20267;-89
2023/09/26 00:46:04;;;;;;;3.27;2.97;;;;;;;;;;5038618;28;20300;-88
2023/09/26 00:48:32;;;;;;;3.50;3.20;;;;;;;;;;5058446;28;20272;-87
2023/09/26 00:50:59;;;;;;;3.27;2.97;;;;;;;;;;5058578;28;20292;-88
2023/09/26 00:53:27;;;;;;;3.53;3.20;;;;;;;;;;5059503;28;20313;-88
2023/09/26 00:55:57;;;;;;;3.70;3.30;;;;;;;;;;5056712;28;20723;-88
2023/09/26 00:58:24;;;;;;;5.03;3.87;;;;;;;;;;5055757;28;20218;-89
2023/09/26 01:00:53;;;;;;;3.30;3.00;;;;;;;;;;5055523;28;20240;-89
2023/09/26 01:03:20;;;;;;;4.17;3.73;;;;;;;;;;5054912;28;20213;-89
2023/09/26 01:05:47;;;;;;;3.37;3.07;;;;;;;;;;5053719;28;20234;-88
2023/09/26 01:08:15;;;;;;;3.07;2.83;;;;;;;;;;5054593;28;20241;-88
2023/09/26 01:10:42;;;;;;;3.50;3.20;;;;;;;;;;5054930;28;20235;-89
2023/09/26 01:13:10;;;;;;;5.37;3.30;;;;;;;;;;5055828;28;20213;-89
2023/09/26 01:15:39;;;;;;;3.43;3.13;;;;;;;;;;5055484;28;20244;-88
2023/09/26 01:18:08;;;;;;;4.17;3.27;;;;;;;;;;5055525;28;20313;-89
2023/09/26 01:20:35;;;;;;;2.83;2.63;;;;;;;;;;5055030;28;20234;-88
2023/09/26 01:23:06;;;;;;;2.93;2.73;;;;;;;;;;5055734;28;20672;-87
2023/09/26 01:25:34;;;;;;;3.13;2.87;;;;;;;;;;5055240;28;20284;-88
2023/09/26 01:28:06;;;;;;;3.00;2.80;;;;;;;;;;5055499;28;20584;-89
2023/09/26 01:30:33;;;;;;;3.27;2.97;;;;;;;;;;5054774;28;20597;-89
2023/09/26 01:33:00;;;;;;;3.00;2.70;;;;;;;;;;5055565;28;20690;-89
2023/09/26 01:35:27;;;;;;;2.90;2.70;;;;;;;;;;5054850;28;20234;-88
2023/09/26 01:37:54;;;;;;;2.80;2.60;;;;;;;;;;5055422;28;20254;-89
2023/09/26 01:40:21;;;;;;;4.37;2.80;;;;;;;;;;5054345;28;20241;-88
2023/09/26 01:42:50;;;;;;;2.70;2.50;;;;;;;;;;5055563;28;20206;-89
2023/09/26 01:45:17;;;;;;;3.07;2.77;;;;;;;;;;5054691;28;20232;-88
2023/09/26 01:47:45;;;;;;;2.83;2.60;;;;;;;;;;5054913;28;20233;-82
2023/09/26 01:50:12;;;;;;;2.60;2.50;;;;;;;;;;5053049;28;20244;-82
2023/09/26 01:52:39;;;;;;;3.30;2.87;;;;;;;;;;5053495;28;20386;-82
2023/09/26 01:55:07;;;;;;;4.17;2.97;;;;;;;;;;5052860;28;20237;-82
2023/09/26 01:57:35;;;;;;;3.60;2.83;;;;;;;;;;5053601;28;20230;-82
2023/09/26 02:00:08;;;;;;;4.07;2.80;;;;;;;;;;5053068;28;20234;-83
2023/09/26 02:02:35;;;;;;;2.63;2.43;;;;;;;;;;5053576;28;20667;-82
2023/09/26 02:05:02;;;;;;;4.00;2.80;;;;;;;;;;5052939;28;20234;-82
2023/09/26 02:07:29;;;;;;;5.23;2.70;;;;;;;;;;5053048;28;20237;-82
2023/09/26 02:09:56;;;;;;;3.33;2.47;;;;;;;;;;5052500;28;20703;-82
2023/09/26 02:12:23;;;;;;;2.70;2.50;;;;;;;;;;5053451;28;20233;-82
2023/09/26 02:14:51;;;;;;;2.63;2.37;;;;;;;;;;5052722;28;20324;-82
2023/09/26 02:17:19;;;;;;;2.67;2.50;;;;;;;;;;5052982;28;20229;-82
2023/09/26 02:19:46;;;;;;;2.90;2.70;;;;;;;;;;5052615;28;20237;-83
2023/09/26 02:22:13;;;;;;;2.80;2.60;;;;;;;;;;5052937;28;20202;-82
2023/09/26 02:24:40;;;;;;;2.30;2.20;;;;;;;;;;5052888;28;20234;-82
2023/09/26 02:27:07;;;;;;;2.33;2.23;;;;;;;;;;5053024;28;20659;-82
2023/09/26 02:29:34;;;;;;;2.57;2.37;;;;;;;;;;5052311;28;20238;-82
2023/09/26 02:32:01;;;;;;;2.27;2.07;;;;;;;;;;5052799;28;20226;-82
2023/09/26 02:34:29;;;;;;;2.70;2.50;;;;;;;;;;5052341;28;20242;-82
2023/09/26 02:36:57;;;;;;;2.90;2.70;;;;;;;;;;5052180;28;20226;-82
2023/09/26 02:39:24;;;;;;;2.97;2.70;;;;;;;;;;5052087;28;20240;-82
2023/09/26 02:41:51;;;;;;;2.73;2.53;;;;;;;;;;5052978;28;20230;-82
2023/09/26 02:44:18;;;;;;;2.70;2.50;;;;;;;;;;5052425;28;20236;-82
2023/09/26 02:46:45;;;;;;;2.60;2.40;;;;;;;;;;5052637;28;20236;-82
2023/09/26 02:49:12;;;;;;;4.47;2.73;;;;;;;;;;5052008;28;20226;-83
2023/09/26 02:51:40;;;;;;;3.07;2.47;;;;;;;;;;5052943;28;20230;-83
2023/09/26 02:54:07;;;;;;;3.63;2.70;;;;;;;;;;5052745;28;20233;-84
2023/09/26 02:56:34;;;;;;;3.53;2.70;;;;;;;;;;5053001;28;20230;-82
2023/09/26 02:59:01;;;;;;;4.07;3.03;;;;;;;;;;5052166;28;20244;-83
2023/09/26 03:01:29;;;;;;;3.60;3.10;;;;;;;;;;5053088;28;20206;-83
2023/09/26 03:03:56;;;;;;;2.90;2.70;;;;;;;;;;5052640;28;20692;-83
2023/09/26 03:06:23;;;;;;;3.23;2.97;;;;;;;;;;5068964;28;20212;-83
2023/09/26 03:08:51;;;;;;;2.60;2.40;;;;;;;;;;5073475;28;20204;-84
2023/09/26 03:11:18;;;;;;;2.70;2.50;;;;;;;;;;5074116;28;20206;-84
2023/09/26 03:13:45;;;;;;;3.20;2.70;;;;;;;;;;5073590;28;20205;-84
2023/09/26 03:16:14;;;;;;;5.57;2.80;;;;;;;;;;5073761;28;20206;-83
2023/09/26 03:18:41;;;;;;;3.53;2.73;;;;;;;;;;5073070;28;20213;-87
2023/09/26 03:21:08;;;;;;;2.70;2.50;;;;;;;;;;5074991;28;20186;-84
2023/09/26 03:23:35;;;;;;;3.93;2.80;;;;;;;;;;5063134;28;20198;-83
2023/09/26 03:26:10;;;;;;;4.57;2.90;;;;;;;;;;5051579;28;20237;-82
2023/09/26 03:28:38;;;;;;;3.17;2.97;;;;;;;;;;5051860;28;20282;-83
2023/09/26 03:31:05;;;;;;;2.90;2.70;;;;;;;;;;5051775;28;20245;-82
2023/09/26 03:33:32;;;;;;;2.83;2.67;;;;;;;;;;5051820;28;20249;-82
2023/09/26 03:36:00;;;;;;;2.47;2.30;;;;;;;;;;5051552;28;20258;-82
2023/09/26 03:38:27;;;;;;;3.43;3.13;;;;;;;;;;5051489;28;20643;-83
2023/09/26 03:40:57;;;;;;;3.10;2.90;;;;;;;;;;5051518;28;20262;-83
2023/09/26 03:43:26;;;;;;;3.00;2.80;;;;;;;;;;5051852;28;20311;-82
2023/09/26 03:45:53;;;;;;;5.37;2.70;;;;;;;;;;5051179;28;20234;-82
2023/09/26 03:48:20;;;;;;;2.80;2.60;;;;;;;;;;5033978;28;20249;-82
2023/09/26 03:50:47;;;;;;;2.80;2.60;;;;;;;;;;5031068;28;20230;-83
2023/09/26 03:53:14;;;;;;;2.67;2.47;;;;;;;;;;5031767;28;20712;-82
2023/09/26 03:55:41;;;;;;;2.77;2.57;;;;;;;;;;5031353;28;20239;-82
2023/09/26 03:58:08;;;;;;;5.27;2.73;;;;;;;;;;5031718;28;20708;-83
2023/09/26 04:00:37;;;;;;;2.60;2.40;;;;;;;;;;5031404;28;20242;-82
2023/09/26 04:03:04;;;;;;;2.90;2.70;;;;;;;;;;5031735;28;20207;-82
2023/09/26 04:05:31;;;;;;;3.30;2.53;;;;;;;;;;5031219;28;20994;-82
2023/09/26 04:07:58;;;;;;;2.80;2.60;;;;;;;;;;5031603;28;20234;-83
2023/09/26 04:10:25;;;;;;;3.00;2.80;;;;;;;;;;5031244;28;20329;-82
2023/09/26 04:12:52;;;;;;;2.67;2.50;;;;;;;;;;5031304;28;20700;-83
2023/09/26 04:15:20;;;;;;;2.50;2.40;;;;;;;;;;5031333;28;20242;-83
2023/09/26 04:17:48;;;;;;;3.23;2.90;;;;;;;;;;5031878;28;20226;-82
2023/09/26 04:20:19;;;;;;;2.97;2.77;;;;;;;;;;5031329;28;20722;-83
2023/09/26 04:22:46;;;;;;;4.90;3.00;;;;;;;;;;5031795;28;20190;-83
2023/09/26 04:25:14;;;;;;;3.37;2.60;;;;;;;;;;5031241;28;20235;-83
2023/09/26 04:27:41;;;;;;;3.57;2.70;;;;;;;;;;5031561;28;20598;-83
2023/09/26 04:30:09;;;;;;;3.10;2.90;;;;;;;;;;5031041;28;20235;-81
2023/09/26 04:32:36;;;;;;;2.70;2.50;;;;;;;;;;5034041;28;20226;-82
2023/09/26 04:35:05;;;;;;;7.30;2.77;;;;;;;;;;5034899;28;20230;-82
2023/09/26 04:37:32;;;;;;;3.07;2.87;;;;;;;;;;5034779;28;20713;-82
2023/09/26 04:40:00;;;;;;;2.70;2.57;;;;;;;;;;5035131;28;20234;-82
2023/09/26 04:42:27;;;;;;;2.30;2.20;;;;;;;;;;5035492;28;20203;-82
2023/09/26 04:44:54;;;;;;;3.73;2.50;;;;;;;;;;5035802;28;20262;-82
2023/09/26 04:47:21;;;;;;;2.53;2.33;;;;;;;;;;5038569;28;20230;-82
2023/09/26 04:49:48;;;;;;;2.90;2.70;;;;;;;;;;5039762;28;20238;-83
2023/09/26 04:52:16;;;;;;;3.30;3.00;;;;;;;;;;5036515;28;20235;-83
2023/09/26 04:54:44;;;;;;;4.70;2.90;;;;;;;;;;5039212;28;20234;-83
2023/09/26 04:57:11;;;;;;;5.30;3.33;;;;;;;;;;5035789;28;20261;-82
2023/09/26 04:59:38;;;;;;;3.70;3.00;;;;;;;;;;5037144;28;20246;-82
2023/09/26 05:02:05;;;;;;;3.27;2.60;;;;;;;;;;5036350;28;20230;-83
2023/09/26 05:04:32;;;;;;;2.90;2.70;;;;;;;;;;5034595;28;20246;-83
2023/09/26 05:06:59;;;;;;;3.10;2.90;;;;;;;;;;5034808;28;20234;-82
2023/09/26 05:09:27;;;;;;;4.77;2.80;;;;;;;;;;5034075;28;20242;-84
2023/09/26 05:11:54;;;;;;;3.53;3.00;;;;;;;;;;5034799;28;20213;-83
2023/09/26 05:14:22;;;;;;;3.10;2.80;;;;;;;;;;5034566;28;20235;-83
2023/09/26 05:16:50;;;;;;;3.77;3.10;;;;;;;;;;5034735;28;20230;-83
2023/09/26 05:19:17;;;;;;;2.57;2.47;;;;;;;;;;5034036;28;20238;-83
2023/09/26 05:21:44;;;;;;;3.00;2.80;;;;;;;;;;5034530;28;20568;-82
2023/09/26 05:24:11;;;;;;;3.53;2.97;;;;;;;;;;5034229;28;20573;-83
2023/09/26 05:26:40;;;;;;;4.17;2.87;;;;;;;;;;5034342;28;20223;-83
2023/09/26 05:29:07;;;;;;;4.63;3.07;;;;;;;;;;5034121;28;20321;-83
2023/09/26 05:31:34;;;;;;;2.90;2.70;;;;;;;;;;5034762;28;20226;-82
2023/09/26 05:34:01;;;;;;;4.37;2.70;;;;;;;;;;5034154;28;20242;-82
2023/09/26 05:36:28;;;;;;;4.50;2.80;;;;;;;;;;5034284;28;20534;-83
2023/09/26 05:38:55;;;;;;;3.27;2.97;;;;;;;;;;5033806;28;20507;-83
2023/09/26 05:41:22;;;;;;;3.37;3.03;;;;;;;;;;5034757;28;20579;-83
2023/09/26 05:43:50;;;;;;;5.17;3.17;;;;;;;;;;5033707;28;20205;-82
2023/09/26 05:46:18;;;;;;;2.90;2.70;;;;;;;;;;5033834;28;20198;-83
2023/09/26 05:48:45;;;;;;;3.40;3.10;;;;;;;;;;5034135;28;20218;-84
2023/09/26 05:51:12;;;;;;;4.87;3.43;;;;;;;;;;5035263;28;20210;-83
2023/09/26 05:53:39;;;;;;;3.87;3.33;;;;;;;;;;5034863;28;20219;-83
2023/09/26 05:56:07;;;;;;;4.07;3.60;;;;;;;;;;5034069;28;20251;-82
2023/09/26 05:58:34;;;;;;;4.63;3.40;;;;;;;;;;5034289;28;20280;-82
2023/09/26 06:01:08;;;;;;;8.00;3.33;;;;;;;;;;5033229;28;20415;-83
2023/09/26 06:03:35;;;;;;;4.40;3.30;;;;;;;;;;5034289;28;20191;-83
2023/09/26 06:06:03;;;;;;;4.07;3.67;;;;;;;;;;5033594;28;20238;-83
2023/09/26 06:08:31;;;;;;;3.63;3.33;;;;;;;;;;5033419;28;20223;-82
2023/09/26 06:10:58;;;;;;;4.07;3.67;;;;;;;;;;5033306;28;20254;-83
2023/09/26 06:13:25;;;;;;;4.27;3.87;;;;;;;;;;5033629;28;20258;-83
2023/09/26 06:15:52;;;;;;;4.80;4.30;;;;;;;;;;5033158;28;20234;-83
2023/09/26 06:18:21;;;;;;;4.93;4.43;;;;;;;;;;5033216;28;20226;-83
2023/09/26 06:20:48;;;;;;;4.70;4.30;;;;;;;;;;5032987;28;20242;-83
2023/09/26 06:23:15;;;;;;;5.10;4.60;;;;;;;;;;5033826;28;20234;-83
2023/09/26 06:25:42;;;;;;;5.27;4.33;;;;;;;;;;5033255;28;20309;-83
2023/09/26 06:28:09;;;;;;;5.77;4.53;;;;;;;;;;5033704;28;20222;-83
2023/09/26 06:30:36;;;;;;;5.03;4.53;;;;;;;;;;5033039;28;20238;-85
2023/09/26 06:33:03;;;;;;;5.07;4.57;;;;;;;;;;5033611;28;20226;-83
2023/09/26 06:35:33;;;;;;;5.37;4.87;;;;;;;;;;5039278;28;20238;-84
2023/09/26 06:38:00;;;;;;;6.00;5.43;;;;;;;;;;5033209;28;20313;-84
2023/09/26 06:40:27;;;;;;;5.77;5.20;;;;;;;;;;5032810;28;20246;-84
2023/09/26 06:42:56;;;;;;;5.80;5.30;;;;;;;;;;5033432;28;20691;-84
2023/09/26 06:45:23;;;;;;;6.77;5.13;;;;;;;;;;5032809;28;20743;-84
2023/09/26 06:47:50;;;;;;;7.10;5.60;;;;;;;;;;5046851;28;20234;-83
2023/09/26 06:50:18;;;;;;;6.13;5.47;;;;;;;;;;5052385;28;20616;-84
2023/09/26 06:52:46;;;;;;;6.03;5.13;;;;;;;;;;5053188;28;20575;-84
2023/09/26 06:55:13;;;;;;;5.53;4.97;;;;;;;;;;5052167;28;20233;-83
2023/09/26 06:57:40;;;;;;;10.53;6.77;;;;;;;;;;5052858;28;20225;-83
2023/09/26 07:00:16;;;;;;;6.53;5.93;;;;;;;;;;5052874;28;20233;-84
2023/09/26 07:02:43;;;;;;;7.27;6.47;;;;;;;;;;5053231;28;20197;-84
2023/09/26 07:05:11;;;;;;;7.67;5.80;;;;;;;;;;5052625;28;20238;-83
2023/09/26 07:07:38;;;;;;;9.83;6.03;;;;;;;;;;5052993;28;20696;-84
2023/09/26 07:10:08;;;;;;;7.47;6.57;;;;;;;;;;5052220;28;20722;-84
2023/09/26 07:12:35;;;;;;;7.80;6.70;;;;;;;;;;5052703;28;20221;-84
2023/09/26 07:15:02;;;;;;;7.70;6.90;;;;;;;;;;5052617;28;20249;-84
2023/09/26 07:17:29;;;;;;;8.23;7.17;;;;;;;;;;5052616;28;20237;-84
2023/09/26 07:19:56;;;;;;;10.80;7.93;;;;;;;;;;5051854;28;20241;-84
2023/09/26 07:22:24;;;;;;;10.70;7.37;;;;;;;;;;5052878;28;20217;-84
2023/09/26 07:24:51;;;;;;;10.87;7.67;;;;;;;;;;5052335;28;20233;-84
2023/09/26 07:27:20;;;;;;;12.30;9.37;;;;;;;;;;5052981;28;20233;-84
2023/09/26 07:29:47;;;;;;;13.10;8.57;;;;;;;;;;5051862;28;20238;-85
2023/09/26 07:32:15;;;;;;;11.80;9.30;;;;;;;;;;5052761;28;20582;-85
2023/09/26 07:34:43;;;;;;;11.73;8.90;;;;;;;;;;5052403;28;20238;-85
2023/09/26 07:37:10;;;;;;;11.67;8.67;;;;;;;;;;5052814;28;20603;-84
2023/09/26 07:39:37;;;;;;;14.90;8.93;;;;;;;;;;5051332;28;20726;-83
2023/09/26 07:42:04;;;;;;;11.93;8.80;;;;;;;;;;5052276;28;20232;-83
2023/09/26 07:44:33;;;;;;;10.57;8.73;;;;;;;;;;5051812;28;20257;-84
2023/09/26 07:47:00;;;;;;;12.47;8.63;;;;;;;;;;5052419;28;20399;-84
2023/09/26 07:49:27;;;;;;;12.90;9.40;;;;;;;;;;5054110;28;20248;-90
2023/09/26 07:51:54;;;;;;;12.77;8.83;;;;;;;;;;5054890;28;20194;-90
2023/09/26 07:54:21;;;;;;;14.77;10.10;;;;;;;;;;5054169;28;20238;-90
2023/09/26 07:56:48;;;;;;;12.73;9.57;;;;;;;;;;5054481;28;20722;-91
2023/09/26 07:59:16;;;;;;;13.27;9.90;;;;;;;;;;5053322;28;20244;-90
2023/09/26 08:01:44;;;;;;;12.10;9.23;;;;;;;;;;5054781;28;20210;-89
2023/09/26 08:04:11;;;;;;;17.03;9.80;;;;;;;;;;5053602;28;20225;-90
2023/09/26 08:06:38;;;;;;;10.30;8.03;;;;;;;;;;5056934;28;20218;-90
2023/09/26 08:09:06;;;;;;;8.57;7.67;;;;;;;;;;5057780;28;20233;-89
2023/09/26 08:11:33;;;;;;;9.20;8.00;;;;;;;;;;5058512;28;20254;-90
2023/09/26 08:14:00;;;;;;;7.80;6.57;;;;;;;;;;5057330;28;20225;-89
2023/09/26 08:16:27;;;;;;;8.27;6.13;;;;;;;;;;5057925;28;20201;-90
2023/09/26 08:18:55;;;;;;;6.57;5.77;;;;;;;;;;5057503;28;20567;-90
2023/09/26 08:21:24;;;;;;;6.13;5.53;;;;;;;;;;5057674;28;20194;-90
2023/09/26 08:23:51;;;;;;;6.67;5.10;;;;;;;;;;5057703;28;20245;-90
2023/09/26 08:26:19;;;;;;;5.93;5.07;;;;;;;;;;5058041;28;20255;-90
2023/09/26 08:28:46;;;;;;;6.20;5.13;;;;;;;;;;5057553;28;20288;-90
2023/09/26 08:31:14;;;;;;;5.60;4.40;;;;;;;;;;5057952;28;20206;-90
2023/09/26 08:33:41;;;;;;;5.57;4.30;;;;;;;;;;5057246;28;20325;-89
2023/09/26 08:36:15;;;;;;;4.40;4.10;;;;;;;;;;5057582;28;20229;-90
2023/09/26 08:38:42;;;;;;;5.07;4.13;;;;;;;;;;5057029;28;20614;-90
2023/09/26 08:41:09;;;;;;;4.40;4.00;;;;;;;;;;5057460;28;20212;-89
2023/09/26 08:43:36;;;;;;;4.37;3.97;;;;;;;;;;5057054;28;20202;-89
2023/09/26 08:46:04;;;;;;;3.83;3.50;;;;;;;;;;5056464;28;20230;-90
2023/09/26 08:48:31;;;;;;;3.30;3.00;;;;;;;;;;5056974;28;20589;-90
2023/09/26 08:50:59;;;;;;;4.07;3.67;;;;;;;;;;5056566;28;20314;-90
2023/09/26 08:53:28;;;;;;;3.90;3.50;;;;;;;;;;5057493;28;20275;-90
2023/09/26 08:55:55;;;;;;;3.33;2.97;;;;;;;;;;5059613;28;20607;-90
2023/09/26 08:58:22;;;;;;;5.20;3.23;;;;;;;;;;5057450;28;20230;-91
2023/09/26 09:00:50;;;;;;;3.50;3.20;;;;;;;;;;5056677;28;20743;-90
2023/09/26 09:03:17;;;;;;;5.23;3.17;;;;;;;;;;5057068;28;20198;-90
2023/09/26 09:05:44;;;;;;;4.90;2.97;;;;;;;;;;5056009;28;20238;-90
2023/09/26 09:08:18;;;;;;;3.90;3.00;;;;;;;;;;5056407;28;20275;-91
2023/09/26 09:10:53;;;;;;;3.35;3.05;;;;;;;;;;5056149;28;20238;-90
2023/09/26 09:13:27;;;;;;;3.20;2.92;;;;;;;;;;5057778;28;20214;-90
2023/09/26 09:16:07;;;;;;;2.50;2.30;;;;;;;;;;5056920;28;20229;-90
2023/09/26 09:18:34;;;;;;;2.53;2.33;;;;;;;;;;5056159;28;20236;-89
2023/09/26 09:21:01;;;;;;;2.83;2.60;;;;;;;;;;5056436;28;20256;-90
2023/09/26 09:23:28;;;;;;;3.67;2.58;;;;;;;;;;5056641;28;20220;-90
2023/09/26 09:26:12;;;;;;;6.53;2.53;;;;;;;;;;5055829;28;20229;-89
2023/09/26 09:28:39;;;;;;;2.55;2.35;;;;;;;;;;5055604;28;20202;-89
2023/09/26 09:31:06;;;;;;;2.40;2.25;;;;;;;;;;5054686;28;20230;-88
2023/09/26 09:33:33;;;;;;;5.13;2.70;;;;;;;;;;5055323;28;20206;-88
2023/09/26 09:36:00;;;;;;;5.53;2.55;;;;;;;;;;5054617;28;20233;-89
2023/09/26 09:38:27;;;;;;;2.53;2.33;;;;;;;;;;5056571;28;20226;-88
2023/09/26 09:40:54;;;;;;;2.60;2.40;;;;;;;;;;5056257;28;20236;-87
2023/09/26 09:43:25;;;;;;;3.00;2.50;;;;;;;;;;5055824;28;20202;-88
2023/09/26 09:45:53;;;;;;;2.60;2.40;;;;;;;;;;5055029;28;20237;-88
2023/09/26 09:48:21;;;;;;;4.05;2.33;;;;;;;;;;5054926;28;20234;-88
2023/09/26 09:50:52;;;;;;;2.90;2.30;;;;;;;;;;5061292;28;20233;-88
2023/09/26 09:53:20;;;;;;;2.60;2.40;;;;;;;;;;5055442;28;20214;-89
2023/09/26 09:55:49;;;;;;;3.28;2.40;;;;;;;;;;5055210;28;20264;-89
2023/09/26 09:58:17;;;;;;;3.22;2.22;;;;;;;;;;5054938;28;20218;-88
2023/09/26 10:00:45;;;;;;;2.60;2.40;;;;;;;;;;5054728;28;20615;-90
2023/09/26 10:03:13;;;;;;;2.40;2.17;;;;;;;;;;5055573;28;20217;-90
2023/09/26 10:05:40;;;;;;;2.40;2.20;;;;;;;;;;5054823;28;20313;-90
2023/09/26 10:08:09;;;;;;;2.70;2.30;;;;;;;;;;5055104;28;20222;-89
2023/09/26 10:10:36;;;;;;;2.58;2.20;;;;;;;;;;5054593;28;20256;-89
2023/09/26 10:13:04;;;;;;;2.30;2.10;;;;;;;;;;5055262;28;20206;-90
2023/09/26 10:15:33;;;;;;;2.67;2.47;;;;;;;;;;5054496;28;20234;-90
2023/09/26 10:18:04;;;;;;;2.45;2.25;;;;;;;;;;5054404;28;20315;-89
2023/09/26 10:20:31;;;;;;;3.13;2.10;;;;;;;;;;5054196;28;20268;-90
2023/09/26 10:23:10;;;;;;;2.05;1.90;;;;;;;;;;5054988;28;20209;-90
2023/09/26 10:25:38;;;;;;;3.75;2.13;;;;;;;;;;5054334;28;20604;-89
2023/09/26 10:28:07;;;;;;;2.28;2.00;;;;;;;;;;5054453;28;20505;-90
2023/09/26 10:30:43;;;;;;;2.47;2.00;;;;;;;;;;5054317;28;20321;-91
2023/09/26 10:33:12;;;;;;;2.10;1.90;;;;;;;;;;5054390;28;20210;-90
2023/09/26 10:35:43;;;;;;;1.80;1.70;;;;;;;;;;5053623;28;20619;-91
2023/09/26 10:38:18;;;;;;;1.88;1.77;;;;;;;;;;5054816;28;20234;-91
2023/09/26 10:40:45;;;;;;;1.73;1.63;;;;;;;;;;5054776;28;20702;-91
2023/09/26 10:43:12;;;;;;;2.20;2.00;;;;;;;;;;5055917;28;20213;-91
2023/09/26 10:45:44;;;;;;;1.75;1.65;;;;;;;;;;5054056;28;20225;-90
2023/09/26 10:48:12;;;;;;;2.35;1.80;;;;;;;;;;5054575;28;20249;-91
2023/09/26 10:50:42;;;;;;;2.20;1.70;;;;;;;;;;5053531;28;20609;-92
2023/09/26 10:53:09;;;;;;;2.17;2.05;;;;;;;;;;5054285;28;20206;-91
2023/09/26 10:55:36;;;;;;;2.78;1.50;;;;;;;;;;5052921;28;20630;-91
2023/09/26 10:58:04;;;;;;;1.77;1.67;;;;;;;;;;5053852;28;20273;-91
2023/09/26 11:00:31;;;;;;;2.00;1.73;;;;;;;;;;5052997;28;20245;-92
2023/09/26 11:02:59;;;;;;;2.05;1.52;;;;;;;;;;5053853;28;20206;-91
2023/09/26 11:05:30;;;;;;;1.60;1.50;;;;;;;;;;5053187;28;20265;-92
2023/09/26 11:07:57;;;;;;;2.22;1.67;;;;;;;;;;5053934;28;20253;-92
2023/09/26 11:10:24;;;;;;;3.83;1.80;;;;;;;;;;5053246;28;20241;-92
2023/09/26 11:12:52;;;;;;;1.70;1.60;;;;;;;;;;5054137;28;20210;-92
2023/09/26 11:15:19;;;;;;;1.80;1.70;;;;;;;;;;5053430;28;20237;-92
2023/09/26 11:17:49;;;;;;;1.98;1.88;;;;;;;;;;5054023;28;20237;-92
2023/09/26 11:20:16;;;;;;;1.80;1.70;;;;;;;;;;5053130;28;20254;-92
2023/09/26 11:22:49;;;;;;;1.70;1.60;;;;;;;;;;5053709;28;20695;-91
2023/09/26 11:25:16;;;;;;;3.08;1.67;;;;;;;;;;5053402;28;20646;-91
2023/09/26 11:27:44;;;;;;;1.70;1.60;;;;;;;;;;5053671;28;20230;-92
2023/09/26 11:30:14;;;;;;;2.95;1.80;;;;;;;;;;5053208;28;20244;-92
2023/09/26 11:32:41;;;;;;;1.60;1.50;;;;;;;;;;5053765;28;20241;-91
2023/09/26 11:35:09;;;;;;;1.80;1.70;;;;;;;;;;5053015;28;20229;-91
2023/09/26 11:37:37;;;;;;;1.50;1.40;;;;;;;;;;5053177;28;20234;-91
2023/09/26 11:40:11;;;;;;;1.48;1.38;;;;;;;;;;5051448;28;20230;-90
2023/09/26 11:42:42;;;;;;;1.70;1.60;;;;;;;;;;5053300;28;20209;-93
2023/09/26 11:45:09;;;;;;;3.17;1.90;;;;;;;;;;5052687;28;20707;-91
2023/09/26 11:47:36;;;;;;;1.50;1.40;;;;;;;;;;5041410;28;20739;-91
2023/09/26 11:50:04;;;;;;;2.15;1.65;;;;;;;;;;5032635;28;20233;-91
2023/09/26 11:52:31;;;;;;;2.30;1.60;;;;;;;;;;5033402;28;20210;-92
2023/09/26 11:54:58;;;;;;;1.95;1.83;;;;;;;;;;5032801;28;20245;-91
2023/09/26 11:57:26;;;;;;;2.00;1.80;;;;;;;;;;5032802;28;20241;-92
2023/09/26 11:59:53;;;;;;;1.98;1.67;;;;;;;;;;5032447;28;20246;-91
2023/09/26 12:02:20;;;;;;;2.75;1.70;;;;;;;;;;5032918;28;20203;-92
2023/09/26 12:04:47;;;;;;;1.60;1.50;;;;;;;;;;5032203;28;20270;-92
2023/09/26 12:07:14;;;;;;;1.60;1.50;;;;;;;;;;5033199;28;20242;-91
2023/09/26 12:09:44;;;;;;;1.60;1.50;;;;;;;;;;5032236;28;20238;-92
2023/09/26 12:12:11;;;;;;;1.70;1.60;;;;;;;;;;5033111;28;20245;-92
2023/09/26 12:14:39;;;;;;;1.67;1.58;;;;;;;;;;5032268;28;20238;-93
2023/09/26 12:17:07;;;;;;;1.60;1.50;;;;;;;;;;5033366;28;20262;-92
2023/09/26 12:19:34;;;;;;;2.58;1.67;;;;;;;;;;5037508;28;20263;-93
2023/09/26 12:22:01;;;;;;;1.60;1.50;;;;;;;;;;5041421;28;20230;-92
2023/09/26 12:24:29;;;;;;;2.05;1.55;;;;;;;;;;5038930;28;20230;-93
2023/09/26 12:26:56;;;;;;;1.45;1.35;;;;;;;;;;5036113;28;20317;-93
2023/09/26 12:29:23;;;;;;;1.63;1.52;;;;;;;;;;5033009;28;20318;-93
2023/09/26 12:31:52;;;;;;;1.10;1.10;;;;;;;;;;5033375;28;20207;-93
2023/09/26 12:34:20;;;;;;;1.25;1.23;;;;;;;;;;5032612;28;20231;-93
2023/09/26 12:36:47;;;;;;;1.35;1.25;;;;;;;;;;5032834;28;20226;-92
2023/09/26 12:39:14;;;;;;;1.50;1.42;;;;;;;;;;5032401;28;20227;-92
2023/09/26 12:41:41;;;;;;;1.67;1.50;;;;;;;;;;5033903;28;20207;-92
2023/09/26 12:44:08;;;;;;;1.73;1.63;;;;;;;;;;5032533;28;20317;-93
2023/09/26 12:46:35;;;;;;;1.60;1.50;;;;;;;;;;5032623;28;20238;-91
2023/09/26 12:49:04;;;;;;;1.52;1.42;;;;;;;;;;5032190;28;20241;-91
2023/09/26 12:51:31;;;;;;;1.48;1.38;;;;;;;;;;5032769;28;20211;-91
2023/09/26 12:53:58;;;;;;;1.55;1.45;;;;;;;;;;5034586;28;20206;-90
2023/09/26 12:56:25;;;;;;;1.67;1.58;;;;;;;;;;5035439;28;20226;-90
2023/09/26 12:58:52;;;;;;;1.42;1.33;;;;;;;;;;5034939;28;20195;-91
2023/09/26 13:01:19;;;;;;;1.52;1.42;;;;;;;;;;5035819;28;20211;-90
2023/09/26 13:03:48;;;;;;;1.70;1.60;;;;;;;;;;5034748;28;20202;-90
2023/09/26 13:06:16;;;;;;;1.55;1.45;;;;;;;;;;5035593;28;20265;-89
2023/09/26 13:08:44;;;;;;;1.73;1.63;;;;;;;;;;5034788;28;20555;-90
2023/09/26 13:11:11;;;;;;;1.60;1.50;;;;;;;;;;5035585;28;20239;-91
2023/09/26 13:13:38;;;;;;;3.22;1.98;;;;;;;;;;5035882;28;20218;-91
2023/09/26 13:16:06;;;;;;;1.63;1.52;;;;;;;;;;5035270;28;20235;-92
2023/09/26 13:18:33;;;;;;;1.40;1.40;;;;;;;;;;5035687;28;20249;-92
2023/09/26 13:21:00;;;;;;;1.60;1.50;;;;;;;;;;5035304;28;20239;-91
2023/09/26 13:23:28;;;;;;;1.50;1.40;;;;;;;;;;5036870;28;20203;-91
2023/09/26 13:25:55;;;;;;;2.25;1.48;;;;;;;;;;5035339;28;20289;-91
2023/09/26 13:28:22;;;;;;;1.60;1.50;;;;;;;;;;5035628;28;20230;-91
2023/09/26 13:30:49;;;;;;;1.75;1.65;;;;;;;;;;5034681;28;20235;-90
2023/09/26 13:33:19;;;;;;;2.25;1.50;;;;;;;;;;5035271;28;20198;-91
2023/09/26 13:35:46;;;;;;;1.55;1.45;;;;;;;;;;5035018;28;20274;-91
2023/09/26 13:38:13;;;;;;;1.77;1.60;;;;;;;;;;5035533;28;20237;-91
2023/09/26 13:40:43;;;;;;;1.75;1.58;;;;;;;;;;5034715;28;20230;-91
2023/09/26 13:43:10;;;;;;;4.20;1.75;;;;;;;;;;5035894;28;20261;-90
2023/09/26 13:45:37;;;;;;;1.50;1.40;;;;;;;;;;5034551;28;20235;-91
2023/09/26 13:48:04;;;;;;;1.67;1.58;;;;;;;;;;5069805;22;20737;-86
2023/09/26 13:50:31;;;;;;;1.38;1.30;;;;;;;;;;5065316;28;20240;-86
2023/09/26 13:52:58;;;;;;;2.20;1.70;;;;;;;;;;5062608;28;20203;-86
2023/09/26 13:55:25;;;;;;;1.10;1.05;;;;;;;;;;5068302;28;20225;-86
2023/09/26 13:57:54;;;;;;;1.63;1.30;;;;;;;;;;5063050;28;20252;-87
2023/09/26 14:00:21;;;;;;;1.73;1.52;;;;;;;;;;5062845;28;20234;-86
2023/09/26 14:02:52;;;;;;;1.63;1.45;;;;;;;;;;5065412;28;20292;-86
2023/09/26 14:05:20;;;;;;;1.70;1.60;;;;;;;;;;5065054;28;20606;-85
2023/09/26 14:07:47;;;;;;;1.33;1.30;;;;;;;;;;5063406;28;20228;-84
2023/09/26 14:10:15;;;;;;;1.83;1.55;;;;;;;;;;5060882;28;20320;-84
2023/09/26 14:12:42;;;;;;;1.63;1.52;;;;;;;;;;5062005;28;20206;-84
2023/09/26 14:15:10;;;;;;;1.77;1.50;;;;;;;;;;5064478;28;20674;-84
2023/09/26 14:17:37;;;;;;;1.60;1.50;;;;;;;;;;5064996;28;20223;-84
2023/09/26 14:20:07;;;;;;;1.90;1.80;;;;;;;;;;5064459;28;20225;-84
2023/09/26 14:22:34;;;;;;;1.60;1.50;;;;;;;;;;5064774;28;20205;-84
2023/09/26 14:25:01;;;;;;;1.65;1.50;;;;;;;;;;5061171;28;20229;-84
2023/09/26 14:27:28;;;;;;;2.25;1.88;;;;;;;;;;5059886;28;20205;-84
2023/09/26 14:30:01;;;;;;;1.60;1.50;;;;;;;;;;5061587;28;20240;-84
2023/09/26 14:32:30;;;;;;;1.50;1.40;;;;;;;;;;5061345;28;20232;-84
2023/09/26 14:34:57;;;;;;;1.95;1.40;;;;;;;;;;5060567;28;20351;-84
2023/09/26 14:37:24;;;;;;;1.40;1.30;;;;;;;;;;5061021;28;20217;-84
2023/09/26 14:39:51;;;;;;;1.48;1.38;;;;;;;;;;5062044;28;20240;-84
2023/09/26 14:42:18;;;;;;;1.90;1.80;;;;;;;;;;5064512;28;20213;-84
2023/09/26 14:44:45;;;;;;;2.83;1.70;;;;;;;;;;5055667;28;20234;-84
2023/09/26 14:47:12;;;;;;;1.55;1.45;;;;;;;;;;5064214;28;20197;-84